createdAt,value
2018-03-20T00:00:14.015Z,2.99
2018-03-20T00:01:14.042Z,3
2018-03-20T00:02:14.027Z,3.01
2018-03-20T00:03:14.032Z,3.02
2018-03-20T00:04:14.036Z,3.01
2018-03-20T00:05:14.054Z,3.02
2018-03-20T00:06:14.071Z,3.01
2018-03-20T00:07:14.029Z,3.04
2018-03-20T00:08:14.059Z,3
2018-03-20T00:09:14.055Z,3.01
2018-03-20T00:10:14.040Z,3.01
2018-03-20T00:11:14.327Z,2.99
2018-03-20T00:12:14.084Z,3.01
2018-03-20T00:13:14.077Z,3.03
2018-03-20T00:14:14.061Z,3
2018-03-20T00:15:14.076Z,2.97
2018-03-20T00:16:14.098Z,2.95
2018-03-20T00:17:14.060Z,2.94
2018-03-20T00:18:14.078Z,2.88
2018-03-20T00:19:14.075Z,2.92
2018-03-20T00:20:14.070Z,2.86
2018-03-20T00:21:14.088Z,2.87
2018-03-20T00:22:14.071Z,2.87
2018-03-20T00:23:14.083Z,2.87
2018-03-20T00:24:14.072Z,2.89
2018-03-20T00:25:14.078Z,2.89
2018-03-20T00:26:14.118Z,2.88
2018-03-20T00:27:14.195Z,2.84
2018-03-20T00:28:14.083Z,2.84
2018-03-20T00:29:14.107Z,2.82
2018-03-20T00:30:14.093Z,2.85
2018-03-20T00:31:14.100Z,2.83
2018-03-20T00:32:14.126Z,2.8
2018-03-20T00:33:14.161Z,2.82
2018-03-20T00:34:14.110Z,2.86
2018-03-20T00:35:14.110Z,2.89
2018-03-20T00:36:14.156Z,2.87
2018-03-20T00:37:14.141Z,2.85
2018-03-20T00:38:14.136Z,2.86
2018-03-20T00:39:14.140Z,2.84
2018-03-20T00:40:14.109Z,2.84
2018-03-20T00:41:14.136Z,2.79
2018-03-20T00:42:14.118Z,2.78
2018-03-20T00:43:14.133Z,2.79
2018-03-20T00:44:14.135Z,2.8
2018-03-20T00:45:14.133Z,2.83
2018-03-20T00:46:14.297Z,2.83
2018-03-20T00:47:14.140Z,2.84
2018-03-20T00:48:14.145Z,2.84
2018-03-20T00:49:14.178Z,2.84
2018-03-20T00:50:14.191Z,2.86
2018-03-20T00:51:14.191Z,2.87
2018-03-20T00:52:14.154Z,2.88
2018-03-20T00:53:14.159Z,2.9
2018-03-20T00:54:14.198Z,2.89
2018-03-20T00:55:14.168Z,2.89
2018-03-20T00:56:14.176Z,2.89
2018-03-20T00:57:14.197Z,2.87
2018-03-20T00:58:14.153Z,2.88
2018-03-20T00:59:14.184Z,2.89
2018-03-20T01:00:14.177Z,2.91
2018-03-20T01:01:14.221Z,2.94
2018-03-20T01:02:14.192Z,2.95
2018-03-20T01:03:14.180Z,2.94
2018-03-20T01:04:14.202Z,2.94
2018-03-20T01:05:14.189Z,2.94
2018-03-20T01:06:14.232Z,2.95
2018-03-20T01:07:14.204Z,2.94
2018-03-20T01:08:14.221Z,2.94
2018-03-20T01:09:14.251Z,2.93
2018-03-20T01:10:14.233Z,2.94
2018-03-20T01:11:14.217Z,2.96
2018-03-20T01:12:14.211Z,2.97
2018-03-20T01:13:14.230Z,2.98
2018-03-20T01:14:14.226Z,2.99
2018-03-20T01:15:14.223Z,2.99
2018-03-20T01:16:14.226Z,3
2018-03-20T01:17:14.259Z,3
2018-03-20T01:18:14.249Z,3.01
2018-03-20T01:19:14.233Z,3.01
2018-03-20T01:20:14.248Z,3.01
2018-03-20T01:21:14.250Z,3.02
2018-03-20T01:22:14.432Z,3.01
2018-03-20T01:23:14.253Z,3
2018-03-20T01:24:14.270Z,3.02
2018-03-20T01:25:14.567Z,3.02
2018-03-20T01:26:14.260Z,3.02
2018-03-20T01:27:14.289Z,3.03
2018-03-20T01:28:14.264Z,3.02
2018-03-20T01:29:14.259Z,3.03
2018-03-20T01:30:14.260Z,3
2018-03-20T01:31:14.272Z,3.03
2018-03-20T01:32:14.276Z,3.03
2018-03-20T01:33:14.285Z,3.03
2018-03-20T01:34:14.333Z,3.01
2018-03-20T01:35:14.293Z,3.02
2018-03-20T01:36:14.307Z,3.03
2018-03-20T01:37:14.314Z,3.02
2018-03-20T01:38:14.288Z,3
2018-03-20T01:39:14.311Z,3.01
2018-03-20T01:40:14.301Z,3.01
2018-03-20T01:41:14.299Z,3
2018-03-20T01:42:14.347Z,3.04
2018-03-20T01:43:14.327Z,3.04
2018-03-20T01:44:14.319Z,3.04
2018-03-20T01:45:14.331Z,3.05
2018-03-20T01:46:14.341Z,3.05
2018-03-20T01:47:14.359Z,3.05
2018-03-20T01:48:14.344Z,3.06
2018-03-20T01:49:14.325Z,3.07
2018-03-20T01:50:14.340Z,3.07
2018-03-20T01:51:14.384Z,3.06
2018-03-20T01:52:14.379Z,3.06
2018-03-20T01:53:14.373Z,3.07
2018-03-20T01:54:14.446Z,3.07
2018-03-20T01:55:14.388Z,3.06
2018-03-20T01:56:14.413Z,3.05
2018-03-20T01:57:14.420Z,3.07
2018-03-20T01:58:14.396Z,3.07
2018-03-20T01:59:14.368Z,3.05
2018-03-20T02:00:14.419Z,3.05
2018-03-20T02:01:14.388Z,3.08
2018-03-20T02:02:14.396Z,3.05
2018-03-20T02:03:14.411Z,3.03
2018-03-20T02:04:14.454Z,3.03
2018-03-20T02:05:14.366Z,3.03
2018-03-20T02:06:14.377Z,3.04
2018-03-20T02:07:14.397Z,3.07
2018-03-20T02:08:14.472Z,3.08
2018-03-20T02:09:14.535Z,3.05
2018-03-20T02:10:14.421Z,2.97
2018-03-20T02:11:14.422Z,2.98
2018-03-20T02:12:14.420Z,3
2018-03-20T02:13:14.406Z,3.05
2018-03-20T02:14:14.745Z,3.04
2018-03-20T02:15:14.427Z,3.01
2018-03-20T02:16:14.408Z,3.02
2018-03-20T02:17:14.572Z,3.01
2018-03-20T02:18:14.424Z,3.03
2018-03-20T02:19:14.426Z,3.01
2018-03-20T02:20:14.425Z,3
2018-03-20T02:21:14.420Z,2.98
2018-03-20T02:22:14.453Z,2.99
2018-03-20T02:23:14.431Z,3.01
2018-03-20T02:24:14.438Z,3
2018-03-20T02:25:14.450Z,2.98
2018-03-20T02:26:14.432Z,3.04
2018-03-20T02:27:14.448Z,3.05
2018-03-20T02:28:14.433Z,3.05
2018-03-20T02:29:14.437Z,3.05
2018-03-20T02:30:14.451Z,3.07
2018-03-20T02:31:14.477Z,3.05
2018-03-20T02:32:14.455Z,3.06
2018-03-20T02:33:14.458Z,3.06
2018-03-20T02:34:14.468Z,3.06
2018-03-20T02:35:14.462Z,3.05
2018-03-20T02:36:14.476Z,3.04
2018-03-20T02:37:14.486Z,3.03
2018-03-20T02:38:14.509Z,3.03
2018-03-20T02:39:14.492Z,3.01
2018-03-20T02:40:14.476Z,3.01
2018-03-20T02:41:14.479Z,3.04
2018-03-20T02:42:14.483Z,3.04
2018-03-20T02:43:14.503Z,3.02
2018-03-20T02:44:14.488Z,3
2018-03-20T02:45:14.471Z,3
2018-03-20T02:46:14.494Z,3
2018-03-20T02:47:14.496Z,3.01
2018-03-20T02:48:14.493Z,2.98
2018-03-20T02:49:14.516Z,2.98
2018-03-20T02:50:14.545Z,2.99
2018-03-20T02:51:14.585Z,3
2018-03-20T02:52:14.493Z,2.99
2018-03-20T02:53:14.535Z,3.01
2018-03-20T02:54:14.555Z,3.01
2018-03-20T02:55:14.532Z,3
2018-03-20T02:56:14.582Z,2.99
2018-03-20T02:57:14.523Z,3.03
2018-03-20T02:58:14.530Z,3.05
2018-03-20T02:59:14.550Z,3.05
2018-03-20T03:00:14.539Z,3.06
2018-03-20T03:01:14.556Z,3.05
2018-03-20T03:02:14.538Z,3.05
2018-03-20T03:03:14.532Z,3.06
2018-03-20T03:04:14.563Z,3.06
2018-03-20T03:05:14.561Z,3.07
2018-03-20T03:06:14.547Z,3.05
2018-03-20T03:07:14.533Z,3.05
2018-03-20T03:08:14.539Z,3.06
2018-03-20T03:09:14.564Z,3.05
2018-03-20T03:10:14.536Z,3.05
2018-03-20T03:11:14.542Z,3.06
2018-03-20T03:12:14.585Z,3.06
2018-03-20T03:13:14.583Z,3.06
2018-03-20T03:14:14.628Z,3.02
2018-03-20T03:15:14.556Z,3.01
2018-03-20T03:16:14.603Z,3.02
2018-03-20T03:17:14.593Z,3.03
2018-03-20T03:18:14.575Z,3
2018-03-20T03:19:14.580Z,3.01
2018-03-20T03:20:14.624Z,3.01
2018-03-20T03:21:14.593Z,2.98
2018-03-20T03:22:14.616Z,2.97
2018-03-20T03:23:14.634Z,3
2018-03-20T03:24:14.597Z,2.99
2018-03-20T03:25:14.604Z,2.97
2018-03-20T03:26:14.628Z,3
2018-03-20T03:27:14.609Z,3
2018-03-20T03:28:14.724Z,3
2018-03-20T03:29:14.601Z,2.99
2018-03-20T03:30:14.655Z,3.01
2018-03-20T03:31:14.653Z,3.02
2018-03-20T03:32:14.652Z,3.03
2018-03-20T03:33:14.654Z,3.02
2018-03-20T03:34:14.651Z,3.01
2018-03-20T03:35:14.645Z,3.02
2018-03-20T03:36:14.632Z,3.03
2018-03-20T03:37:14.632Z,3.02
2018-03-20T03:38:14.905Z,3.03
2018-03-20T03:39:14.676Z,3.02
2018-03-20T03:40:14.638Z,3.01
2018-03-20T03:41:14.651Z,3.01
2018-03-20T03:42:14.680Z,2.99
2018-03-20T03:43:14.710Z,3
2018-03-20T03:44:14.666Z,2.97
2018-03-20T03:45:14.672Z,2.98
2018-03-20T03:46:14.665Z,2.96
2018-03-20T03:47:14.665Z,2.96
2018-03-20T03:48:14.711Z,2.96
2018-03-20T03:49:14.688Z,2.96
2018-03-20T03:50:14.673Z,2.95
2018-03-20T03:51:14.719Z,2.95
2018-03-20T03:52:14.681Z,2.92
2018-03-20T03:53:14.701Z,2.93
2018-03-20T03:54:14.669Z,2.93
2018-03-20T03:55:14.679Z,2.94
2018-03-20T03:56:14.714Z,2.93
2018-03-20T03:57:14.793Z,2.94
2018-03-20T03:58:14.683Z,2.95
2018-03-20T03:59:14.720Z,2.93
2018-03-20T04:00:14.709Z,2.92
2018-03-20T04:01:14.894Z,2.92
2018-03-20T04:02:14.710Z,2.94
2018-03-20T04:03:14.727Z,2.93
2018-03-20T04:04:14.774Z,2.93
2018-03-20T04:05:14.714Z,2.92
2018-03-20T04:06:14.735Z,2.92
2018-03-20T04:07:14.741Z,2.95
2018-03-20T04:08:14.733Z,2.95
2018-03-20T04:09:14.746Z,2.96
2018-03-20T04:10:14.761Z,2.97
2018-03-20T04:11:14.713Z,2.96
2018-03-20T04:12:14.727Z,2.96
2018-03-20T04:13:14.760Z,2.95
2018-03-20T04:14:14.744Z,2.97
2018-03-20T04:15:14.750Z,2.98
2018-03-20T04:16:14.739Z,2.97
2018-03-20T04:17:14.759Z,2.98
2018-03-20T04:18:15.012Z,2.96
2018-03-20T04:19:14.763Z,2.97
2018-03-20T04:20:14.778Z,2.96
2018-03-20T04:21:14.796Z,2.96
2018-03-20T04:22:14.779Z,2.93
2018-03-20T04:23:14.780Z,2.93
2018-03-20T04:24:14.780Z,2.91
2018-03-20T04:25:14.794Z,2.91
2018-03-20T04:26:14.787Z,2.89
2018-03-20T04:27:14.781Z,2.9
2018-03-20T04:28:14.801Z,2.88
2018-03-20T04:29:14.821Z,2.89
2018-03-20T04:30:14.815Z,2.87
2018-03-20T04:31:14.801Z,2.88
2018-03-20T04:32:14.826Z,2.88
2018-03-20T04:33:14.801Z,2.88
2018-03-20T04:34:14.848Z,2.86
2018-03-20T04:35:14.841Z,2.89
2018-03-20T04:36:14.831Z,2.88
2018-03-20T04:37:14.829Z,2.9
2018-03-20T04:38:14.855Z,2.9
2018-03-20T04:39:14.862Z,2.88
2018-03-20T04:40:14.863Z,2.88
2018-03-20T04:41:14.871Z,2.89
2018-03-20T04:42:14.866Z,2.9
2018-03-20T04:43:14.875Z,2.9
2018-03-20T04:44:14.864Z,2.92
2018-03-20T04:45:14.901Z,2.9
2018-03-20T04:46:14.896Z,2.9
2018-03-20T04:47:14.865Z,2.88
2018-03-20T04:48:14.950Z,2.91
2018-03-20T04:49:14.896Z,2.91
2018-03-20T04:50:14.881Z,2.91
2018-03-20T04:51:14.907Z,2.88
2018-03-20T04:52:14.913Z,2.9
2018-03-20T04:53:14.906Z,2.9
2018-03-20T04:54:14.914Z,2.91
2018-03-20T04:55:14.920Z,2.9
2018-03-20T04:56:14.945Z,2.89
2018-03-20T04:57:14.959Z,2.9
2018-03-20T04:58:14.910Z,2.9
2018-03-20T04:59:15.251Z,2.88
2018-03-20T05:00:14.944Z,2.88
2018-03-20T05:01:14.947Z,2.9
2018-03-20T05:02:14.917Z,2.89
2018-03-20T05:03:14.951Z,2.89
2018-03-20T05:04:14.944Z,2.87
2018-03-20T05:05:14.938Z,2.89
2018-03-20T05:06:14.954Z,2.87
2018-03-20T05:07:14.982Z,2.87
2018-03-20T05:08:14.951Z,2.88
2018-03-20T05:09:14.964Z,2.89
2018-03-20T05:10:14.975Z,2.88
2018-03-20T05:11:15.014Z,2.88
2018-03-20T05:12:15.244Z,2.88
2018-03-20T05:13:14.963Z,2.88
2018-03-20T05:14:14.990Z,2.88
2018-03-20T05:15:14.972Z,2.89
2018-03-20T05:16:15.000Z,2.87
2018-03-20T05:17:14.979Z,2.88
2018-03-20T05:18:15.004Z,2.89
2018-03-20T05:19:14.988Z,2.9
2018-03-20T05:20:14.996Z,2.89
2018-03-20T05:21:15.029Z,2.9
2018-03-20T05:22:15.021Z,2.9
2018-03-20T05:23:14.999Z,2.89
2018-03-20T05:24:15.015Z,2.89
2018-03-20T05:25:15.004Z,2.91
2018-03-20T05:26:15.007Z,2.9
2018-03-20T05:27:15.036Z,2.89
2018-03-20T05:28:15.021Z,2.9
2018-03-20T05:29:15.011Z,2.89
2018-03-20T05:30:15.027Z,2.88
2018-03-20T05:31:15.013Z,2.88
2018-03-20T05:32:15.041Z,2.88
2018-03-20T05:33:15.043Z,2.89
2018-03-20T05:34:15.052Z,2.88
2018-03-20T05:35:15.062Z,2.87
2018-03-20T05:36:15.051Z,2.9
2018-03-20T05:37:15.051Z,2.9
2018-03-20T05:38:15.058Z,2.9
2018-03-20T05:39:15.060Z,2.9
2018-03-20T05:40:15.090Z,2.91
2018-03-20T05:41:15.051Z,2.9
2018-03-20T05:42:15.056Z,2.89
2018-03-20T05:43:15.086Z,2.89
2018-03-20T05:44:15.081Z,2.89
2018-03-20T05:45:15.107Z,2.9
2018-03-20T05:46:15.098Z,2.9
2018-03-20T05:47:15.069Z,2.91
2018-03-20T05:48:15.101Z,2.91
2018-03-20T05:49:15.085Z,2.91
2018-03-20T05:50:15.093Z,2.91
2018-03-20T05:51:15.106Z,2.91
2018-03-20T05:52:15.089Z,2.91
2018-03-20T05:53:15.106Z,2.91
2018-03-20T05:54:15.100Z,2.9
2018-03-20T05:55:15.156Z,2.9
2018-03-20T05:56:15.109Z,2.89
2018-03-20T05:57:15.101Z,2.9
2018-03-20T05:58:15.562Z,2.91
2018-03-20T05:59:15.108Z,2.9
2018-03-20T06:00:15.157Z,2.9
2018-03-20T06:01:15.102Z,2.89
2018-03-20T06:02:15.106Z,2.9
2018-03-20T06:03:15.267Z,2.91
2018-03-20T06:04:15.114Z,2.92
2018-03-20T06:05:15.104Z,2.93
2018-03-20T06:06:15.408Z,2.93
2018-03-20T06:07:15.147Z,2.94
2018-03-20T06:08:15.548Z,2.93
2018-03-20T06:09:15.148Z,2.93
2018-03-20T06:10:15.138Z,2.93
2018-03-20T06:11:15.140Z,2.94
2018-03-20T06:12:15.144Z,2.95
2018-03-20T06:13:15.186Z,2.94
2018-03-20T06:14:15.143Z,2.94
2018-03-20T06:15:15.158Z,2.93
2018-03-20T06:16:15.167Z,2.95
2018-03-20T06:17:15.174Z,2.94
2018-03-20T06:18:15.175Z,2.93
2018-03-20T06:19:15.153Z,2.92
2018-03-20T06:20:15.205Z,2.94
2018-03-20T06:21:15.166Z,2.95
2018-03-20T06:22:15.175Z,2.93
2018-03-20T06:23:15.192Z,2.93
2018-03-20T06:24:15.186Z,2.94
2018-03-20T06:25:15.176Z,2.96
2018-03-20T06:26:15.204Z,2.96
2018-03-20T06:27:23.194Z,2.95
2018-03-20T06:28:24.412Z,2.94
2018-03-20T06:29:20.506Z,2.95
2018-03-20T06:30:23.801Z,2.94
2018-03-20T06:31:26.941Z,2.94
2018-03-20T06:32:15.205Z,2.93
2018-03-20T06:33:15.204Z,2.94
2018-03-20T06:34:15.226Z,2.93
2018-03-20T06:35:15.253Z,2.93
2018-03-20T06:36:15.219Z,2.93
2018-03-20T06:37:15.221Z,2.92
2018-03-20T06:38:15.230Z,2.93
2018-03-20T06:39:15.234Z,2.93
2018-03-20T06:40:15.244Z,2.93
2018-03-20T06:41:15.247Z,2.92
2018-03-20T06:42:15.257Z,2.91
2018-03-20T06:43:15.239Z,2.91
2018-03-20T06:44:15.239Z,2.9
2018-03-20T06:45:15.281Z,2.9
2018-03-20T06:46:15.290Z,2.89
2018-03-20T06:47:15.245Z,2.9
2018-03-20T06:48:15.285Z,2.92
2018-03-20T06:49:15.279Z,2.93
2018-03-20T06:50:15.261Z,2.93
2018-03-20T06:51:15.260Z,2.93
2018-03-20T06:52:15.288Z,2.93
2018-03-20T06:53:15.263Z,2.93
2018-03-20T06:54:15.268Z,2.95
2018-03-20T06:55:15.276Z,2.95
2018-03-20T06:56:15.287Z,2.91
2018-03-20T06:57:15.278Z,2.93
2018-03-20T06:58:15.318Z,2.93
2018-03-20T06:59:15.322Z,2.92
2018-03-20T07:00:15.279Z,2.89
2018-03-20T07:01:15.309Z,2.91
2018-03-20T07:02:15.306Z,2.9
2018-03-20T07:03:15.336Z,2.91
2018-03-20T07:04:15.316Z,2.92
2018-03-20T07:05:15.299Z,2.93
2018-03-20T07:06:15.595Z,2.92
2018-03-20T07:07:15.334Z,2.9
2018-03-20T07:08:15.347Z,2.91
2018-03-20T07:09:15.326Z,2.93
2018-03-20T07:10:15.332Z,2.93
2018-03-20T07:11:15.340Z,2.95
2018-03-20T07:12:15.332Z,2.96
2018-03-20T07:13:15.353Z,2.93
2018-03-20T07:14:15.390Z,2.94
2018-03-20T07:15:15.347Z,2.94
2018-03-20T07:16:15.398Z,2.92
2018-03-20T07:17:15.373Z,2.93
2018-03-20T07:18:15.358Z,2.92
2018-03-20T07:19:15.358Z,2.93
2018-03-20T07:20:15.381Z,2.93
2018-03-20T07:21:15.383Z,2.93
2018-03-20T07:22:15.362Z,2.91
2018-03-20T07:23:15.369Z,2.91
2018-03-20T07:24:15.399Z,2.92
2018-03-20T07:25:15.391Z,2.9
2018-03-20T07:26:15.387Z,2.87
2018-03-20T07:27:15.428Z,2.87
2018-03-20T07:28:15.792Z,2.86
2018-03-20T07:29:15.425Z,2.87
2018-03-20T07:30:15.445Z,2.88
2018-03-20T07:31:15.417Z,2.87
2018-03-20T07:32:15.399Z,2.85
2018-03-20T07:33:15.405Z,2.85
2018-03-20T07:34:15.439Z,2.87
2018-03-20T07:35:15.431Z,2.89
2018-03-20T07:36:15.437Z,2.86
2018-03-20T07:37:15.424Z,2.87
2018-03-20T07:38:15.441Z,2.87
2018-03-20T07:39:15.598Z,2.88
2018-03-20T07:40:15.435Z,2.89
2018-03-20T07:41:15.423Z,2.9
2018-03-20T07:42:15.496Z,2.88
2018-03-20T07:43:15.441Z,2.87
2018-03-20T07:44:15.484Z,2.89
2018-03-20T07:45:15.464Z,2.89
2018-03-20T07:46:15.451Z,2.9
2018-03-20T07:47:15.460Z,2.9
2018-03-20T07:48:15.485Z,2.9
2018-03-20T07:49:15.486Z,2.91
2018-03-20T07:50:15.466Z,2.91
2018-03-20T07:51:15.484Z,2.91
2018-03-20T07:52:15.507Z,2.91
2018-03-20T07:53:15.516Z,2.88
2018-03-20T07:54:15.509Z,2.89
2018-03-20T07:55:15.506Z,2.91
2018-03-20T07:56:15.512Z,2.91
2018-03-20T07:57:15.509Z,2.93
2018-03-20T07:58:15.527Z,2.94
2018-03-20T07:59:15.538Z,2.95
2018-03-20T08:00:15.694Z,2.95
2018-03-20T08:01:15.536Z,2.95
2018-03-20T08:02:15.550Z,2.97
2018-03-20T08:03:15.540Z,2.98
2018-03-20T08:04:15.578Z,2.98
2018-03-20T08:05:15.575Z,2.98
2018-03-20T08:06:15.558Z,2.99
2018-03-20T08:07:15.566Z,2.96
2018-03-20T08:08:15.557Z,2.97
2018-03-20T08:09:15.573Z,2.99
2018-03-20T08:10:15.612Z,3
2018-03-20T08:11:15.614Z,2.97
2018-03-20T08:12:15.582Z,2.94
2018-03-20T08:13:15.600Z,2.93
2018-03-20T08:14:15.614Z,2.91
2018-03-20T08:15:15.636Z,2.88
2018-03-20T08:16:15.609Z,2.88
2018-03-20T08:17:15.609Z,2.88
2018-03-20T08:18:15.608Z,2.84
2018-03-20T08:19:15.618Z,2.84
2018-03-20T08:20:15.675Z,2.85
2018-03-20T08:21:15.641Z,2.83
2018-03-20T08:22:15.624Z,2.9
2018-03-20T08:23:15.664Z,2.93
2018-03-20T08:24:15.621Z,2.9
2018-03-20T08:25:15.654Z,2.86
2018-03-20T08:26:15.633Z,2.86
2018-03-20T08:27:15.629Z,2.84
2018-03-20T08:28:15.685Z,2.92
2018-03-20T08:29:15.880Z,2.93
2018-03-20T08:30:15.652Z,2.93
2018-03-20T08:31:15.665Z,2.92
2018-03-20T08:32:15.659Z,2.92
2018-03-20T08:33:15.651Z,2.9
2018-03-20T08:34:15.645Z,2.88
2018-03-20T08:35:15.667Z,2.9
2018-03-20T08:36:15.652Z,2.88
2018-03-20T08:37:15.658Z,2.9
2018-03-20T08:38:15.733Z,2.88
2018-03-20T08:39:15.684Z,2.9
2018-03-20T08:40:15.719Z,2.89
2018-03-20T08:41:15.662Z,2.89
2018-03-20T08:42:15.669Z,2.91
2018-03-20T08:43:15.666Z,2.87
2018-03-20T08:44:15.668Z,2.85
2018-03-20T08:45:15.782Z,2.89
2018-03-20T08:46:15.699Z,2.92
2018-03-20T08:47:15.677Z,2.88
2018-03-20T08:48:15.676Z,2.85
2018-03-20T08:49:15.692Z,2.8
2018-03-20T08:50:15.708Z,2.75
2018-03-20T08:51:15.705Z,2.73
2018-03-20T08:52:15.701Z,2.81
2018-03-20T08:53:15.695Z,2.88
2018-03-20T08:54:15.705Z,2.89
2018-03-20T08:55:15.723Z,2.91
2018-03-20T08:56:15.844Z,2.9
2018-03-20T08:57:15.856Z,2.94
2018-03-20T08:58:15.715Z,2.89
2018-03-20T08:59:15.726Z,2.9
2018-03-20T09:00:15.888Z,2.81
2018-03-20T09:01:15.754Z,2.8
2018-03-20T09:02:15.760Z,2.65
2018-03-20T09:03:15.751Z,2.67
2018-03-20T09:04:15.774Z,2.63
2018-03-20T09:05:15.895Z,2.54
2018-03-20T09:06:15.789Z,2.54
2018-03-20T09:07:15.816Z,2.61
2018-03-20T09:08:15.777Z,2.67
2018-03-20T09:09:15.857Z,2.62
2018-03-20T09:10:15.830Z,2.61
2018-03-20T09:11:15.835Z,2.59
2018-03-20T09:12:15.863Z,2.68
2018-03-20T09:13:15.845Z,2.64
2018-03-20T09:14:15.865Z,2.62
2018-03-20T09:15:15.825Z,2.64
2018-03-20T09:16:16.061Z,2.61
2018-03-20T09:17:15.788Z,2.7
2018-03-20T09:18:15.781Z,2.74
2018-03-20T09:19:15.783Z,2.7
2018-03-20T09:20:15.804Z,2.67
2018-03-20T09:21:15.823Z,2.65
2018-03-20T09:22:15.807Z,2.65
2018-03-20T09:23:15.815Z,2.56
2018-03-20T09:24:15.817Z,2.54
2018-03-20T09:25:15.818Z,2.62
2018-03-20T09:26:15.841Z,2.61
2018-03-20T09:27:15.844Z,2.63
2018-03-20T09:28:15.821Z,2.62
2018-03-20T09:29:15.804Z,2.71
2018-03-20T09:30:15.817Z,2.72
2018-03-20T09:31:15.860Z,2.66
2018-03-20T09:32:15.829Z,2.58
2018-03-20T09:33:15.878Z,2.67
2018-03-20T09:34:15.852Z,2.71
2018-03-20T09:35:15.840Z,2.69
2018-03-20T09:36:15.857Z,2.51
2018-03-20T09:37:15.870Z,2.44
2018-03-20T09:38:15.866Z,2.37
2018-03-20T09:39:15.852Z,2.34
2018-03-20T09:40:15.856Z,2.36
2018-03-20T09:41:17.597Z,2.45
2018-03-20T09:42:15.902Z,2.38
2018-03-20T09:43:15.881Z,2.36
2018-03-20T09:44:15.932Z,2.28
2018-03-20T09:45:15.866Z,2.38
2018-03-20T09:46:15.872Z,2.4
2018-03-20T09:47:15.870Z,2.45
2018-03-20T09:48:15.874Z,2.35
2018-03-20T09:49:15.883Z,2.29
2018-03-20T09:50:16.029Z,2.35
2018-03-20T09:51:16.241Z,2.31
2018-03-20T09:52:15.895Z,2.37
2018-03-20T09:53:15.893Z,2.41
2018-03-20T09:54:15.996Z,2.37
2018-03-20T09:55:15.893Z,2.3
2018-03-20T09:56:15.937Z,2.28
2018-03-20T09:57:15.897Z,2.29
2018-03-20T09:58:15.888Z,2.35
2018-03-20T09:59:15.899Z,2.25
2018-03-20T10:00:16.872Z,2.3
2018-03-20T10:01:15.895Z,2.27
2018-03-20T10:02:15.899Z,2.31
2018-03-20T10:03:15.912Z,2.31
2018-03-20T10:04:15.893Z,2.29
2018-03-20T10:05:15.904Z,2.26
2018-03-20T10:06:15.927Z,2.33
2018-03-20T10:07:15.907Z,2.48
2018-03-20T10:08:15.910Z,2.44
2018-03-20T10:09:15.912Z,2.4
2018-03-20T10:10:15.928Z,2.6
2018-03-20T10:11:15.911Z,2.72
2018-03-20T10:12:16.063Z,2.81
2018-03-20T10:13:15.955Z,2.79
2018-03-20T10:14:15.927Z,2.82
2018-03-20T10:15:15.971Z,2.89
2018-03-20T10:16:15.966Z,2.9
2018-03-20T10:17:16.213Z,2.91
2018-03-20T10:18:15.949Z,2.91
2018-03-20T10:19:16.001Z,2.89
2018-03-20T10:20:16.607Z,2.92
2018-03-20T10:21:15.962Z,2.92
2018-03-20T10:22:15.983Z,2.91
2018-03-20T10:23:15.972Z,2.8
2018-03-20T10:24:15.996Z,2.77
2018-03-20T10:25:15.989Z,2.72
2018-03-20T10:26:16.237Z,2.66
2018-03-20T10:27:16.005Z,2.7
2018-03-20T10:28:15.984Z,2.72
2018-03-20T10:29:15.985Z,2.74
2018-03-20T10:30:15.989Z,2.72
2018-03-20T10:31:16.014Z,2.71
2018-03-20T10:32:15.985Z,2.73
2018-03-20T10:33:16.001Z,2.64
2018-03-20T10:34:16.007Z,2.56
2018-03-20T10:35:16.007Z,2.48
2018-03-20T10:36:15.977Z,2.43
2018-03-20T10:37:16.021Z,2.51
2018-03-20T10:38:16.048Z,2.48
2018-03-20T10:39:16.009Z,2.53
2018-03-20T10:40:16.025Z,2.5
2018-03-20T10:41:16.023Z,2.55
2018-03-20T10:42:16.023Z,2.59
2018-03-20T10:43:16.041Z,2.62
2018-03-20T10:44:16.022Z,2.56
2018-03-20T10:45:16.024Z,2.6
2018-03-20T10:46:16.001Z,2.62
2018-03-20T10:47:16.017Z,2.5
2018-03-20T10:48:16.051Z,2.54
2018-03-20T10:49:16.067Z,2.43
2018-03-20T10:50:16.034Z,2.56
2018-03-20T10:51:16.031Z,2.57
2018-03-20T10:52:16.049Z,2.56
2018-03-20T10:53:16.082Z,2.68
2018-03-20T10:54:16.039Z,2.72
2018-03-20T10:55:16.084Z,2.7
2018-03-20T10:56:16.044Z,2.65
2018-03-20T10:57:16.057Z,2.59
2018-03-20T10:58:16.178Z,2.62
2018-03-20T10:59:16.062Z,2.71
2018-03-20T11:00:16.075Z,2.66
2018-03-20T11:01:16.075Z,2.76
2018-03-20T11:02:16.144Z,2.74
2018-03-20T11:03:16.136Z,2.68
2018-03-20T11:04:16.132Z,2.72
2018-03-20T11:05:16.078Z,2.69
2018-03-20T11:06:16.085Z,2.65
2018-03-20T11:07:16.079Z,2.77
2018-03-20T11:08:16.134Z,2.78
2018-03-20T11:09:16.105Z,2.84
2018-03-20T11:10:16.106Z,2.79
2018-03-20T11:11:16.123Z,2.72
2018-03-20T11:12:16.094Z,2.78
2018-03-20T11:13:16.119Z,2.81
2018-03-20T11:14:16.102Z,2.84
2018-03-20T11:15:16.112Z,2.87
2018-03-20T11:16:16.114Z,2.91
2018-03-20T11:17:16.108Z,3.05
2018-03-20T11:18:16.130Z,3.28
2018-03-20T11:19:16.117Z,3.5
2018-03-20T11:20:16.136Z,3.6
2018-03-20T11:21:16.129Z,3.52
2018-03-20T11:22:16.133Z,3.63
2018-03-20T11:23:16.434Z,3.7
2018-03-20T11:24:16.151Z,3.7
2018-03-20T11:25:16.146Z,3.82
2018-03-20T11:26:16.131Z,3.98
2018-03-20T11:27:16.153Z,3.85
2018-03-20T11:28:16.198Z,3.91
2018-03-20T11:29:16.147Z,3.94
2018-03-20T11:30:16.158Z,3.96
2018-03-20T11:31:16.146Z,4.03
2018-03-20T11:32:16.158Z,4.06
2018-03-20T11:33:16.165Z,4.08
2018-03-20T11:34:16.175Z,4.08
2018-03-20T11:35:16.183Z,4.07
2018-03-20T11:36:16.186Z,4.14
2018-03-20T11:37:16.205Z,4.11
2018-03-20T11:38:16.231Z,4.12
2018-03-20T11:39:16.183Z,4.11
2018-03-20T11:40:16.181Z,4.09
2018-03-20T11:41:16.200Z,4.19
2018-03-20T11:42:16.186Z,4.14
2018-03-20T11:43:16.225Z,4.15
2018-03-20T11:44:16.215Z,4.11
2018-03-20T11:45:16.221Z,4.09
2018-03-20T11:46:16.202Z,4.12
2018-03-20T11:47:16.218Z,4.24
2018-03-20T11:48:16.520Z,4.18
2018-03-20T11:49:16.205Z,4.15
2018-03-20T11:50:16.224Z,4.12
2018-03-20T11:51:16.234Z,4.13
2018-03-20T11:52:16.236Z,4.16
2018-03-20T11:53:16.242Z,4.13
2018-03-20T11:54:16.236Z,4.11
2018-03-20T11:55:16.240Z,4.11
2018-03-20T11:56:16.230Z,4.14
2018-03-20T11:57:16.234Z,4.17
2018-03-20T11:58:16.269Z,4.05
2018-03-20T11:59:16.287Z,4.11
2018-03-20T12:00:16.239Z,4.18
2018-03-20T12:01:16.301Z,4.16
2018-03-20T12:02:16.531Z,4.21
2018-03-20T12:03:16.308Z,4.2
2018-03-20T12:04:16.307Z,4.12
2018-03-20T12:05:16.266Z,4.12
2018-03-20T12:06:16.283Z,4.03
2018-03-20T12:07:16.269Z,4.08
2018-03-20T12:08:16.280Z,4
2018-03-20T12:09:16.278Z,4.04
2018-03-20T12:10:16.285Z,3.99
2018-03-20T12:11:16.271Z,3.97
2018-03-20T12:12:16.281Z,4
2018-03-20T12:13:16.314Z,4.08
2018-03-20T12:14:16.273Z,4.06
2018-03-20T12:15:16.297Z,4
2018-03-20T12:16:16.311Z,3.97
2018-03-20T12:17:16.307Z,4.08
2018-03-20T12:18:16.333Z,4
2018-03-20T12:19:16.317Z,3.94
2018-03-20T12:20:16.313Z,3.93
2018-03-20T12:21:16.320Z,4.01
2018-03-20T12:22:16.332Z,4.05
2018-03-20T12:23:16.353Z,4.1
2018-03-20T12:24:16.333Z,4
2018-03-20T12:25:17.372Z,4.06
2018-03-20T12:26:16.333Z,3.99
2018-03-20T12:27:16.325Z,4.03
2018-03-20T12:28:16.319Z,4.05
2018-03-20T12:29:16.370Z,4.09
2018-03-20T12:30:16.335Z,4
2018-03-20T12:31:16.324Z,4
2018-03-20T12:32:16.335Z,3.95
2018-03-20T12:33:16.336Z,3.98
2018-03-20T12:34:16.399Z,4.01
2018-03-20T12:35:16.385Z,3.91
2018-03-20T12:36:16.360Z,3.96
2018-03-20T12:37:16.375Z,4.01
2018-03-20T12:38:16.361Z,4.02
2018-03-20T12:39:16.391Z,4
2018-03-20T12:40:16.360Z,3.97
2018-03-20T12:41:16.378Z,3.97
2018-03-20T12:42:16.366Z,3.86
2018-03-20T12:43:16.378Z,3.95
2018-03-20T12:44:16.401Z,3.89
2018-03-20T12:45:16.383Z,3.92
2018-03-20T12:46:16.380Z,3.92
2018-03-20T12:47:16.407Z,3.92
2018-03-20T12:48:16.399Z,3.89
2018-03-20T12:49:16.389Z,3.94
2018-03-20T12:50:16.399Z,3.87
2018-03-20T12:51:16.403Z,3.84
2018-03-20T12:52:16.398Z,3.83
2018-03-20T12:53:16.436Z,3.9
2018-03-20T12:54:16.393Z,3.91
2018-03-20T12:55:16.449Z,3.92
2018-03-20T12:56:16.413Z,3.95
2018-03-20T12:57:16.401Z,3.94
2018-03-20T12:58:16.403Z,3.89
2018-03-20T12:59:16.396Z,3.88
2018-03-20T13:00:16.433Z,3.84
2018-03-20T13:01:16.449Z,3.9
2018-03-20T13:02:16.433Z,3.89
2018-03-20T13:03:16.499Z,3.85
2018-03-20T13:04:16.464Z,3.86
2018-03-20T13:05:16.456Z,3.83
2018-03-20T13:06:16.443Z,3.85
2018-03-20T13:07:16.456Z,3.89
2018-03-20T13:08:16.449Z,3.85
2018-03-20T13:09:16.484Z,3.86
2018-03-20T13:10:16.437Z,3.89
2018-03-20T13:11:16.450Z,3.88
2018-03-20T13:12:16.457Z,3.85
2018-03-20T13:13:16.730Z,3.85
2018-03-20T13:14:16.483Z,3.81
2018-03-20T13:15:16.501Z,3.82
2018-03-20T13:16:16.515Z,3.81
2018-03-20T13:17:16.467Z,3.87
2018-03-20T13:18:16.464Z,3.88
2018-03-20T13:19:16.816Z,3.88
2018-03-20T13:20:16.489Z,3.85
2018-03-20T13:21:16.474Z,3.83
2018-03-20T13:22:16.478Z,3.88
2018-03-20T13:23:17.267Z,3.93
2018-03-20T13:24:16.471Z,3.91